Time,TemperatureF,DewpointF,PressureIn,WindDirection,WindDirectionDegrees,WindSpeedMPH,WindSpeedGustMPH,Humidity,HourlyPrecipIn,Conditions,Clouds,dailyrainin,SoftwareType,DateUTC
2013-05-31 00:02:00,63.1,54.3,29.70,SW,218,3.5,3.5,73,0.00,RA,,0.00,WeatherDisplay:10.37,2013-05-31 05:02:00,
2013-05-31 00:07:00,63.1,54.3,29.70,SSE,153,5.8,5.8,73,0.00,RA,,0.00,WeatherDisplay:10.37,2013-05-31 05:07:00,
2013-05-31 00:12:00,63.0,54.2,29.70,South,178,5.8,5.8,73,0.00,CLR,,0.00,WeatherDisplay:10.37,2013-05-31 05:12:00,
2013-05-31 00:17:00,62.8,54.0,29.70,SW,232,3.5,3.5,73,0.00,CLR,,0.00,WeatherDisplay:10.37,2013-05-31 05:17:00,
2013-05-31 00:23:00,62.8,54.0,29.70,South,171,3.5,3.5,73,0.00,CLR,,0.00,WeatherDisplay:10.37,2013-05-31 05:23:00,
2013-05-31 00:28:00,62.6,54.2,29.70,South,176,3.5,3.5,74,0.00,CLR,,0.00,WeatherDisplay:10.37,2013-05-31 05:28:00,
2013-05-31 00:33:00,62.6,54.2,29.70,SSW,202,3.5,3.6,74,0.00,CLR,,0.00,WeatherDisplay:10.37,2013-05-31 05:33:00,
2013-05-31 00:38:00,62.6,54.2,29.70,South,181,3.5,3.5,74,0.00,CLR,,0.00,WeatherDisplay:10.37,2013-05-31 05:38:00,
2013-05-31 00:43:00,62.6,54.2,29.70,SSW,194,3.5,3.5,74,0.00,CLR,,0.00,WeatherDisplay:10.37,2013-05-31 05:43:00,
2013-05-31 00:49:00,62.6,54.6,29.70,SE,143,3.5,3.5,75,0.00,CLR,,0.00,WeatherDisplay:10.37,2013-05-31 05:49:00,
2013-05-31 00:54:00,62.6,54.6,29.70,SW,224,5.8,5.8,75,0.00,CLR,,0.00,WeatherDisplay:10.37,2013-05-31 05:54:00,
2013-05-31 00:59:00,62.6,54.6,29.70,SSE,165,3.5,3.5,75,0.00,CLR,,0.00,WeatherDisplay:10.37,2013-05-31 05:59:00,
2013-05-31 01:04:00,62.8,54.7,29.73,SSE,158,5.8,5.8,75,0.00,CLR,,0.00,WeatherDisplay:10.37,2013-05-31 06:04:00,
2013-05-31 01:10:00,62.8,54.7,29.73,SSE,152,5.8,5.8,75,0.00,CLR,,0.00,WeatherDisplay:10.37,2013-05-31 06:10:00,
2013-05-31 01:15:00,63.0,54.9,29.73,SSE,161,6.9,6.9,75,0.00,CLR,,0.00,WeatherDisplay:10.37,2013-05-31 06:15:00,
2013-05-31 01:20:00,63.0,54.9,29.73,SW,216,3.5,3.5,75,0.00,CLR,,0.00,WeatherDisplay:10.37,2013-05-31 06:20:00,
2013-05-31 01:25:00,63.0,54.9,29.73,SSW,202,3.5,3.5,75,0.00,CLR,,0.00,WeatherDisplay:10.37,2013-05-31 06:25:00,
2013-05-31 01:30:00,63.0,54.5,29.73,SSW,194,5.8,5.8,74,0.00,CLR,,0.00,WeatherDisplay:10.37,2013-05-31 06:30:00,
2013-05-31 01:36:00,63.0,54.5,29.73,SSW,203,3.5,0.0,74,0.00,CLR,,0.00,WeatherDisplay:10.37,2013-05-31 06:36:00,
2013-05-31 01:41:00,63.0,54.5,29.73,SSW,194,3.5,3.5,74,0.00,CLR,,0.00,WeatherDisplay:10.37,2013-05-31 06:41:00,
2013-05-31 01:46:00,63.0,54.5,29.73,SSE,157,3.5,3.5,74,0.00,CLR,,0.00,WeatherDisplay:10.37,2013-05-31 06:46:00,
2013-05-31 01:51:00,63.0,54.5,29.73,SE,140,3.1,3.1,74,0.00,CLR,,0.00,WeatherDisplay:10.37,2013-05-31 06:51:00,
2013-05-31 01:57:00,63.0,54.5,29.73,SE,135,3.6,0.0,74,0.00,CLR,,0.00,WeatherDisplay:10.37,2013-05-31 06:57:00,
2013-05-31 02:02:00,63.0,54.5,29.70,SSW,200,8.1,8.1,74,0.00,CLR,,0.00,WeatherDisplay:10.37,2013-05-31 07:02:00,
2013-05-31 02:07:00,63.0,54.5,29.70,SSW,192,5.8,5.8,74,0.00,CLR,,0.00,WeatherDisplay:10.37,2013-05-31 07:07:00,
2013-05-31 02:12:00,63.0,54.5,29.70,SSE,161,3.5,3.5,74,0.00,CLR,,0.00,WeatherDisplay:10.37,2013-05-31 07:12:00,
2013-05-31 02:17:00,63.0,54.5,29.70,SSE,157,3.6,4.0,74,0.00,CLR,,0.00,WeatherDisplay:10.37,2013-05-31 07:17:00,
2013-05-31 02:23:00,63.0,54.2,29.70,South,178,3.5,4.0,73,0.00,CLR,,0.00,WeatherDisplay:10.37,2013-05-31 07:23:00,
2013-05-31 02:28:00,62.8,54.0,29.70,SSE,168,2.3,0.0,73,0.00,CLR,,0.00,WeatherDisplay:10.37,2013-05-31 07:28:00,
2013-05-31 02:33:00,62.8,54.0,29.70,SSE,160,3.5,0.0,73,0.00,CLR,,0.00,WeatherDisplay:10.37,2013-05-31 07:33:00,
2013-05-31 02:38:00,62.6,53.8,29.70,South,170,4.6,4.6,73,0.00,CLR,,0.00,WeatherDisplay:10.37,2013-05-31 07:38:00,
2013-05-31 02:43:00,62.6,53.8,29.70,SSE,159,4.6,4.6,73,0.00,CLR,,0.00,WeatherDisplay:10.37,2013-05-31 07:43:00,
2013-05-31 02:48:00,62.4,53.6,29.70,South,170,5.8,5.8,73,0.00,CLR,,0.00,WeatherDisplay:10.37,2013-05-31 07:48:00,
2013-05-31 02:53:00,62.2,53.8,29.70,SSE,156,3.5,3.5,74,0.00,CLR,,0.00,WeatherDisplay:10.37,2013-05-31 07:53:00,
2013-05-31 02:59:00,62.2,53.8,29.70,WSW,237,3.5,3.5,74,0.00,CLR,,0.00,WeatherDisplay:10.37,2013-05-31 07:59:00,
2013-05-31 03:04:00,62.2,53.8,29.70,SSE,159,3.5,0.0,74,0.00,CLR,,0.00,WeatherDisplay:10.37,2013-05-31 08:04:00,
2013-05-31 03:09:00,62.2,53.8,29.70,SSW,195,3.5,3.5,74,0.00,CLR,,0.00,WeatherDisplay:10.37,2013-05-31 08:09:00,
2013-05-31 03:14:00,62.1,53.7,29.70,South,179,3.5,3.5,74,0.00,CLR,,0.00,WeatherDisplay:10.37,2013-05-31 08:14:00,
2013-05-31 03:19:00,62.1,53.7,29.67,South,174,3.5,3.5,74,0.00,CLR,,0.00,WeatherDisplay:10.37,2013-05-31 08:19:00,
2013-05-31 03:25:00,62.1,54.0,29.67,South,187,3.5,3.5,75,0.00,CLR,,0.00,WeatherDisplay:10.37,2013-05-31 08:25:00,
2013-05-31 03:30:00,62.1,54.0,29.67,South,172,3.5,3.5,75,0.00,CLR,,0.00,WeatherDisplay:10.37,2013-05-31 08:30:00,
2013-05-31 03:35:00,62.1,54.0,29.70,SSE,152,3.5,3.5,75,0.00,CLR,,0.00,WeatherDisplay:10.37,2013-05-31 08:35:00,
2013-05-31 03:40:00,61.9,53.9,29.70,South,173,3.5,3.5,75,0.00,CLR,,0.00,WeatherDisplay:10.37,2013-05-31 08:40:00,
2013-05-31 03:45:00,61.9,53.9,29.70,SSE,168,2.7,2.7,75,0.00,CLR,,0.00,WeatherDisplay:10.37,2013-05-31 08:45:00,
2013-05-31 03:51:00,61.9,53.9,29.70,SSE,152,3.5,3.5,75,0.00,CLR,,0.00,WeatherDisplay:10.37,2013-05-31 08:51:00,
2013-05-31 03:56:00,62.1,54.0,29.70,SSE,158,2.3,0.0,75,0.00,CLR,,0.00,WeatherDisplay:10.37,2013-05-31 08:56:00,
2013-05-31 04:01:00,62.1,54.0,29.70,South,178,5.8,5.8,75,0.00,CLR,,0.00,WeatherDisplay:10.37,2013-05-31 09:01:00,
2013-05-31 04:06:00,62.1,54.0,29.70,SSE,166,3.5,3.5,75,0.00,CLR,,0.00,WeatherDisplay:10.37,2013-05-31 09:06:00,
2013-05-31 04:11:00,62.1,54.0,29.70,SE,144,3.5,3.5,75,0.00,CLR,,0.00,WeatherDisplay:10.37,2013-05-31 09:11:00,
2013-05-31 04:16:00,62.1,54.0,29.70,SSE,148,2.3,0.0,75,0.00,CLR,,0.00,WeatherDisplay:10.37,2013-05-31 09:16:00,
2013-05-31 04:21:00,62.1,54.0,29.70,South,179,3.5,3.5,75,0.00,CLR,,0.00,WeatherDisplay:10.37,2013-05-31 09:21:00,
2013-05-31 04:27:00,61.9,53.9,29.70,South,183,3.5,3.5,75,0.00,CLR,,0.00,WeatherDisplay:10.37,2013-05-31 09:27:00,
2013-05-31 04:32:00,61.9,53.9,29.70,SE,126,3.5,3.5,75,0.00,CLR,,0.00,WeatherDisplay:10.37,2013-05-31 09:32:00,
2013-05-31 04:37:00,61.7,53.7,29.70,SSE,157,3.5,0.0,75,0.00,CLR,,0.00,WeatherDisplay:10.37,2013-05-31 09:37:00,
2013-05-31 04:42:00,61.7,53.7,29.70,SSE,168,4.6,4.6,75,0.00,CLR,,0.00,WeatherDisplay:10.37,2013-05-31 09:42:00,
2013-05-31 04:48:00,61.7,53.7,29.70,SE,138,3.5,3.5,75,0.00,CLR,,0.00,WeatherDisplay:10.37,2013-05-31 09:48:00,
2013-05-31 04:53:00,61.7,54.1,29.70,SSW,204,3.5,3.5,76,0.00,CLR,,0.00,WeatherDisplay:10.37,2013-05-31 09:53:00,
2013-05-31 04:58:00,61.5,53.9,29.70,ESE,114,3.5,0.0,76,0.00,CLR,,0.00,WeatherDisplay:10.37,2013-05-31 09:58:00,
2013-05-31 05:03:00,61.3,53.7,29.70,South,169,3.5,3.5,76,0.00,CLR,,0.00,WeatherDisplay:10.37,2013-05-31 10:03:00,
2013-05-31 05:08:00,61.3,53.7,29.70,South,176,3.5,3.5,76,0.00,CLR,,0.00,WeatherDisplay:10.37,2013-05-31 10:08:00,
2013-05-31 05:13:00,61.2,53.5,29.70,South,182,5.8,5.8,76,0.00,CLR,,0.00,WeatherDisplay:10.37,2013-05-31 10:13:00,
2013-05-31 05:18:00,61.2,53.9,29.70,SSE,162,3.5,3.5,77,0.00,CLR,,0.00,WeatherDisplay:10.37,2013-05-31 10:18:00,
2013-05-31 05:23:00,61.2,53.9,29.70,South,190,3.5,3.5,77,0.00,CLR,,0.00,WeatherDisplay:10.37,2013-05-31 10:23:00,
2013-05-31 05:29:00,61.2,54.2,29.70,SSE,155,3.5,3.5,78,0.00,CLR,,0.00,WeatherDisplay:10.37,2013-05-31 10:29:00,
2013-05-31 05:34:00,61.2,54.2,29.70,SSE,155,3.5,3.5,78,0.00,CLR,,0.00,WeatherDisplay:10.37,2013-05-31 10:34:00,
2013-05-31 05:39:00,61.3,54.4,29.70,SE,146,2.3,2.3,78,0.00,CLR,,0.00,WeatherDisplay:10.37,2013-05-31 10:39:00,
2013-05-31 05:44:00,61.3,54.8,29.70,ESE,103,5.8,5.8,79,0.00,CLR,,0.00,WeatherDisplay:10.37,2013-05-31 10:44:00,
2013-05-31 05:49:00,61.7,55.1,29.70,East,92,3.5,3.5,79,0.00,CLR,,0.00,WeatherDisplay:10.37,2013-05-31 10:49:00,
2013-05-31 05:55:00,61.9,55.3,29.70,SSE,157,3.6,0.0,79,0.00,CLR,,0.00,WeatherDisplay:10.37,2013-05-31 10:55:00,
2013-05-31 06:00:00,62.1,55.5,29.70,SE,142,5.8,5.8,79,0.00,CLR,,0.00,WeatherDisplay:10.37,2013-05-31 11:00:00,
2013-05-31 06:05:00,62.2,55.3,29.70,SSW,206,4.6,0.0,78,0.00,CLR,,0.00,WeatherDisplay:10.37,2013-05-31 11:05:00,
2013-05-31 06:10:00,62.4,55.5,29.70,East,99,3.5,3.6,78,0.00,CLR,,0.00,WeatherDisplay:10.37,2013-05-31 11:10:00,
2013-05-31 06:15:00,62.6,54.9,29.70,SE,145,9.2,9.2,76,0.00,CLR,,0.00,WeatherDisplay:10.37,2013-05-31 11:15:00,
2013-05-31 06:21:00,62.6,54.6,29.70,SW,232,10.4,10.4,75,0.00,CLR,,0.00,WeatherDisplay:10.37,2013-05-31 11:21:00,
2013-05-31 06:26:00,62.6,54.6,29.70,SSW,210,5.8,5.8,75,0.00,CLR,,0.00,WeatherDisplay:10.37,2013-05-31 11:26:00,
2013-05-31 06:31:00,62.6,54.6,29.70,SE,144,6.9,6.9,75,0.00,CLR,,0.00,WeatherDisplay:10.37,2013-05-31 11:31:00,
2013-05-31 06:36:00,62.4,54.8,29.70,SSE,158,5.8,5.8,76,0.00,CLR,,0.00,WeatherDisplay:10.37,2013-05-31 11:36:00,
2013-05-31 06:42:00,62.2,54.6,29.70,South,173,5.8,5.8,76,0.00,CLR,,0.00,WeatherDisplay:10.37,2013-05-31 11:42:00,
2013-05-31 06:47:00,62.2,54.6,29.70,SE,143,3.5,3.5,76,0.00,CLR,,0.00,WeatherDisplay:10.37,2013-05-31 11:47:00,
2013-05-31 06:52:00,62.1,54.4,29.70,SSE,161,5.8,5.8,76,0.00,CLR,,0.00,WeatherDisplay:10.37,2013-05-31 11:52:00,
2013-05-31 06:57:00,61.7,54.4,29.70,SSE,159,5.8,5.8,77,0.00,CLR,,0.00,WeatherDisplay:10.37,2013-05-31 11:57:00,
2013-05-31 07:03:00,61.7,54.4,29.73,SSE,156,2.3,0.0,77,0.00,CLR,,0.00,WeatherDisplay:10.37,2013-05-31 12:03:00,
2013-05-31 07:08:00,61.7,54.8,29.73,SSE,166,5.8,5.8,78,0.00,CLR,,0.00,WeatherDisplay:10.37,2013-05-31 12:08:00,
2013-05-31 07:13:00,61.5,54.9,29.73,SSE,152,3.5,0.0,79,0.00,CLR,,0.00,WeatherDisplay:10.37,2013-05-31 12:13:00,
2013-05-31 07:18:00,61.5,54.9,29.73,SSE,158,3.5,0.0,79,0.00,CLR,,0.00,WeatherDisplay:10.37,2013-05-31 12:18:00,
2013-05-31 07:23:00,61.5,54.9,29.73,SSE,151,3.5,0.0,79,0.00,CLR,,0.00,WeatherDisplay:10.37,2013-05-31 12:23:00,
2013-05-31 07:28:00,61.5,55.3,29.73,SSE,166,0.0,0.0,80,0.00,CLR,,0.00,WeatherDisplay:10.37,2013-05-31 12:28:00,
2013-05-31 07:34:00,61.7,55.5,29.70,SW,218,5.8,0.0,80,0.00,CLR,,0.00,WeatherDisplay:10.37,2013-05-31 12:34:00,
2013-05-31 07:39:00,61.5,55.3,29.70,ESE,116,3.5,3.5,80,0.00,CLR,,0.00,WeatherDisplay:10.37,2013-05-31 12:39:00,
2013-05-31 07:44:00,61.7,55.5,29.70,SSE,156,4.6,4.6,80,0.00,CLR,,0.00,WeatherDisplay:10.37,2013-05-31 12:44:00,
2013-05-31 07:49:00,61.7,55.8,29.70,SSE,167,3.5,3.5,81,0.00,CLR,,0.00,WeatherDisplay:10.37,2013-05-31 12:49:00,
2013-05-31 07:54:00,61.9,56.0,29.70,SSE,157,3.1,3.1,81,0.00,CLR,,0.00,WeatherDisplay:10.37,2013-05-31 12:54:00,
2013-05-31 08:00:00,62.1,56.2,29.70,SE,143,3.5,3.5,81,0.00,CLR,,0.00,WeatherDisplay:10.37,2013-05-31 13:00:00,
2013-05-31 08:05:00,62.2,56.3,29.70,SSW,209,3.5,3.5,81,0.00,CLR,,0.00,WeatherDisplay:10.37,2013-05-31 13:05:00,
2013-05-31 08:10:00,62.2,56.3,29.70,SW,231,3.5,3.5,81,0.00,CLR,,0.00,WeatherDisplay:10.37,2013-05-31 13:10:00,
2013-05-31 08:15:00,62.4,56.5,29.70,SSE,155,5.8,5.8,81,0.00,CLR,,0.00,WeatherDisplay:10.37,2013-05-31 13:15:00,
2013-05-31 08:20:00,62.8,56.5,29.70,SSW,194,3.5,3.5,80,0.00,CLR,,0.00,WeatherDisplay:10.37,2013-05-31 13:20:00,
2013-05-31 08:26:00,63.1,56.9,29.70,SSE,158,4.0,4.0,80,0.00,CLR,,0.00,WeatherDisplay:10.37,2013-05-31 13:26:00,
2013-05-31 08:31:00,63.7,57.0,29.70,SSE,156,5.8,5.8,79,0.00,CLR,,0.00,WeatherDisplay:10.37,2013-05-31 13:31:00,
2013-05-31 08:36:00,64.2,56.9,29.70,SSE,149,5.8,5.8,77,0.00,CLR,,0.00,WeatherDisplay:10.37,2013-05-31 13:36:00,
2013-05-31 08:41:00,64.8,56.6,29.70,SE,127,5.8,5.8,75,0.00,CLR,,0.00,WeatherDisplay:10.37,2013-05-31 13:41:00,
2013-05-31 08:47:00,65.3,56.0,29.70,South,191,5.8,5.8,72,0.00,CLR,,0.00,WeatherDisplay:10.37,2013-05-31 13:47:00,
2013-05-31 08:52:00,65.5,55.8,29.70,SSW,195,5.8,5.8,71,0.00,CLR,,0.00,WeatherDisplay:10.37,2013-05-31 13:52:00,
2013-05-31 08:57:00,65.7,54.8,29.70,SSW,207,5.8,5.8,68,0.00,CLR,,0.00,WeatherDisplay:10.37,2013-05-31 13:57:00,
2013-05-31 09:02:00,66.0,54.3,29.70,South,177,5.8,5.8,66,0.00,CLR,,0.00,WeatherDisplay:10.37,2013-05-31 14:02:00,
2013-05-31 09:07:00,66.6,54.4,29.70,SE,139,8.1,8.1,65,0.00,CLR,,0.00,WeatherDisplay:10.37,2013-05-31 14:07:00,
2013-05-31 09:12:00,66.9,54.3,29.70,South,178,3.5,3.6,64,0.00,CLR,,0.00,WeatherDisplay:10.37,2013-05-31 14:12:00,
2013-05-31 09:18:00,67.3,53.8,29.70,South,177,5.8,5.8,62,0.00,CLR,,0.00,WeatherDisplay:10.37,2013-05-31 14:18:00,
2013-05-31 09:23:00,67.5,54.0,29.70,South,169,3.5,3.5,62,0.00,CLR,,0.00,WeatherDisplay:10.37,2013-05-31 14:23:00,
2013-05-31 09:28:00,68.2,53.8,29.70,SSW,207,8.1,8.1,60,0.00,CLR,,0.00,WeatherDisplay:10.37,2013-05-31 14:28:00,
2013-05-31 09:33:00,68.4,53.0,29.70,South,177,8.1,8.1,58,0.00,CLR,,0.00,WeatherDisplay:10.37,2013-05-31 14:33:00,
2013-05-31 09:39:00,68.4,53.0,29.70,SSE,168,5.8,5.8,58,0.00,CLR,,0.00,WeatherDisplay:10.37,2013-05-31 14:39:00,
2013-05-31 09:44:00,68.5,52.2,29.70,SSW,205,5.8,5.8,56,0.00,CLR,,0.00,WeatherDisplay:10.37,2013-05-31 14:44:00,
2013-05-31 09:49:00,68.9,52.6,29.70,SSE,157,7.6,7.6,56,0.00,CLR,,0.00,WeatherDisplay:10.37,2013-05-31 14:49:00,
2013-05-31 09:54:00,69.3,52.4,29.70,SE,140,12.7,12.7,55,0.00,CLR,,0.00,WeatherDisplay:10.37,2013-05-31 14:54:00,
2013-05-31 09:59:00,69.4,52.6,29.70,SSW,200,9.2,9.2,55,0.00,CLR,,0.00,WeatherDisplay:10.37,2013-05-31 14:59:00,
2013-05-31 10:04:00,69.8,52.4,29.70,South,173,8.1,8.1,54,0.00,CLR,,0.00,WeatherDisplay:10.37,2013-05-31 15:04:00,
2013-05-31 10:09:00,69.8,52.4,29.70,South,171,5.8,5.8,54,0.00,CLR,,0.00,WeatherDisplay:10.37,2013-05-31 15:09:00,
2013-05-31 10:14:00,69.4,52.1,29.70,SSE,160,8.1,8.1,54,0.00,CLR,,0.00,WeatherDisplay:10.37,2013-05-31 15:14:00,
2013-05-31 10:20:00,69.4,52.6,29.70,South,185,5.8,5.8,55,0.00,CLR,,0.00,WeatherDisplay:10.37,2013-05-31 15:20:00,
2013-05-31 10:25:00,70.2,52.2,29.70,South,191,8.1,8.1,53,0.00,CLR,,0.00,WeatherDisplay:10.37,2013-05-31 15:25:00,
2013-05-31 10:30:00,70.3,52.4,29.70,SSW,199,5.8,5.8,53,0.00,CLR,,0.00,WeatherDisplay:10.37,2013-05-31 15:30:00,
2013-05-31 10:35:00,71.2,53.2,29.70,SW,232,3.5,3.5,53,0.00,CLR,,0.00,WeatherDisplay:10.37,2013-05-31 15:35:00,
2013-05-31 10:40:00,72.0,53.4,29.70,WSW,240,9.2,9.2,52,0.00,CLR,,0.00,WeatherDisplay:10.37,2013-05-31 15:40:00,
2013-05-31 10:45:00,72.1,53.5,29.70,SSE,149,5.8,5.8,52,0.00,CLR,,0.00,WeatherDisplay:10.37,2013-05-31 15:45:00,
2013-05-31 10:51:00,72.3,53.7,29.70,SW,233,7.2,7.2,52,0.00,CLR,,0.00,WeatherDisplay:10.37,2013-05-31 15:51:00,
2013-05-31 10:56:00,72.1,53.0,29.70,South,190,10.5,10.5,51,0.00,CLR,,0.00,WeatherDisplay:10.37,2013-05-31 15:56:00,
2013-05-31 11:01:00,72.1,53.5,29.70,SE,136,10.4,10.4,52,0.00,CLR,,0.00,WeatherDisplay:10.37,2013-05-31 16:01:00,
2013-05-31 11:06:00,72.7,54.0,29.70,ENE,78,8.7,8.7,52,0.00,CLR,,0.00,WeatherDisplay:10.37,2013-05-31 16:06:00,
2013-05-31 11:11:00,73.2,54.0,29.70,SSE,147,13.8,13.8,51,0.00,CLR,,0.00,WeatherDisplay:10.37,2013-05-31 16:11:00,
2013-05-31 11:16:00,73.4,53.6,29.70,SSE,168,9.2,9.2,50,0.00,CLR,,0.00,WeatherDisplay:10.37,2013-05-31 16:16:00,
2013-05-31 11:22:00,73.6,54.3,29.70,SSE,166,8.1,8.1,51,0.00,CLR,,0.00,WeatherDisplay:10.37,2013-05-31 16:22:00,
2013-05-31 11:27:00,73.8,53.4,29.70,SSW,211,5.8,5.8,49,0.00,CLR,,0.00,WeatherDisplay:10.37,2013-05-31 16:27:00,
2013-05-31 11:32:00,74.1,54.3,29.73,SSE,163,9.2,9.2,50,0.00,CLR,,0.00,WeatherDisplay:10.37,2013-05-31 16:32:00,
2013-05-31 11:38:00,74.3,53.9,29.73,WSW,247,5.8,5.8,49,0.00,CLR,,0.00,WeatherDisplay:10.37,2013-05-31 16:38:00,
2013-05-31 11:43:00,74.1,53.2,29.73,SSW,198,8.1,8.1,48,0.00,CLR,,0.00,WeatherDisplay:10.37,2013-05-31 16:43:00,
2013-05-31 11:48:00,74.3,53.3,29.70,SSW,193,9.2,9.2,48,0.00,CLR,,0.00,WeatherDisplay:10.37,2013-05-31 16:48:00,
2013-05-31 11:53:00,74.7,54.2,29.70,SE,132,10.4,10.4,49,0.00,CLR,,0.00,WeatherDisplay:10.37,2013-05-31 16:53:00,
2013-05-31 11:58:00,74.8,53.3,29.70,SSE,166,12.7,12.7,47,0.00,CLR,,0.00,WeatherDisplay:10.37,2013-05-31 16:58:00,
2013-05-31 12:04:00,75.0,53.4,29.73,South,184,6.9,6.9,47,0.00,CLR,,0.00,WeatherDisplay:10.37,2013-05-31 17:04:00,
2013-05-31 12:09:00,75.4,54.3,29.73,SSW,193,5.8,5.8,48,0.00,CLR,,0.00,WeatherDisplay:10.37,2013-05-31 17:09:00,
2013-05-31 12:14:00,75.6,53.9,29.73,South,180,8.1,8.1,47,0.00,CLR,,0.00,WeatherDisplay:10.37,2013-05-31 17:14:00,
2013-05-31 12:19:00,75.7,53.5,29.70,SSW,212,5.8,5.8,46,0.00,CLR,,0.00,WeatherDisplay:10.37,2013-05-31 17:19:00,
2013-05-31 12:24:00,75.9,53.6,29.70,SW,228,9.2,9.2,46,0.00,CLR,,0.00,WeatherDisplay:10.37,2013-05-31 17:24:00,
2013-05-31 12:30:00,76.1,53.2,29.70,SSE,148,9.2,9.2,45,0.00,CLR,,0.00,WeatherDisplay:10.37,2013-05-31 17:30:00,
2013-05-31 12:35:00,76.3,53.4,29.70,SSW,201,10.4,10.4,45,0.00,CLR,,0.00,WeatherDisplay:10.37,2013-05-31 17:35:00,
2013-05-31 12:40:00,76.1,53.2,29.70,SW,220,11.5,11.5,45,0.00,CLR,,0.00,WeatherDisplay:10.37,2013-05-31 17:40:00,
2013-05-31 12:45:00,76.3,53.4,29.70,SE,141,8.1,8.1,45,0.00,CLR,,0.00,WeatherDisplay:10.37,2013-05-31 17:45:00,
2013-05-31 12:51:00,76.8,53.9,29.70,SSW,204,5.8,5.8,45,0.00,CLR,,0.00,WeatherDisplay:10.37,2013-05-31 17:51:00,
2013-05-31 12:56:00,77.2,53.6,29.70,SSW,193,9.2,9.2,44,0.00,CLR,,0.00,WeatherDisplay:10.37,2013-05-31 17:56:00,
2013-05-31 13:01:00,77.2,53.6,29.70,SW,232,5.8,5.8,44,0.00,CLR,,0.00,WeatherDisplay:10.37,2013-05-31 18:01:00,
2013-05-31 13:06:00,77.2,53.6,29.70,South,191,9.2,9.2,44,0.00,CLR,,0.00,WeatherDisplay:10.37,2013-05-31 18:06:00,
2013-05-31 13:11:00,77.2,53.6,29.70,SW,227,8.1,8.1,44,0.00,CLR,,0.00,WeatherDisplay:10.37,2013-05-31 18:11:00,
2013-05-31 13:16:00,77.0,53.4,29.70,SE,134,8.3,8.3,44,0.00,CLR,,0.00,WeatherDisplay:10.37,2013-05-31 18:16:00,
2013-05-31 13:22:00,77.2,53.6,29.73,SSW,207,17.3,17.3,44,0.00,CLR,,0.00,WeatherDisplay:10.37,2013-05-31 18:22:00,
2013-05-31 13:27:00,77.2,53.6,29.73,SSW,193,9.2,9.2,44,0.00,CLR,,0.00,WeatherDisplay:10.37,2013-05-31 18:27:00,
2013-05-31 13:32:00,77.4,53.7,29.73,SSW,193,8.1,8.1,44,0.00,CLR,,0.00,WeatherDisplay:10.37,2013-05-31 18:32:00,
2013-05-31 13:37:00,77.7,53.4,29.73,South,172,8.1,8.1,43,0.00,CLR,,0.00,WeatherDisplay:10.37,2013-05-31 18:37:00,
2013-05-31 13:42:00,77.9,53.6,29.73,South,181,10.4,10.4,43,0.00,CLR,,0.00,WeatherDisplay:10.37,2013-05-31 18:42:00,
2013-05-31 13:47:00,77.9,53.6,29.73,SSW,204,15.0,15.0,43,0.00,CLR,,0.00,WeatherDisplay:10.37,2013-05-31 18:47:00,
2013-05-31 13:52:00,77.7,53.4,29.73,SW,229,15.0,15.0,43,0.00,CLR,,0.00,WeatherDisplay:10.37,2013-05-31 18:52:00,
2013-05-31 13:58:00,78.1,53.8,29.73,SSW,211,5.8,6.3,43,0.00,CLR,,0.00,WeatherDisplay:10.37,2013-05-31 18:58:00,
2013-05-31 14:03:00,78.4,53.4,29.70,SW,225,9.2,9.2,42,0.00,CLR,,0.00,WeatherDisplay:10.37,2013-05-31 19:03:00,
2013-05-31 14:08:00,78.8,53.8,29.70,SSW,193,10.4,10.4,42,0.00,CLR,,0.00,WeatherDisplay:10.37,2013-05-31 19:08:00,
2013-05-31 14:13:00,79.0,53.9,29.70,ESE,104,5.8,5.8,42,0.00,CLR,,0.00,WeatherDisplay:10.37,2013-05-31 19:13:00,
2013-05-31 14:18:00,79.0,53.9,29.70,SW,221,8.1,8.1,42,0.00,CLR,,0.00,WeatherDisplay:10.37,2013-05-31 19:18:00,
2013-05-31 14:23:00,79.0,53.9,29.70,SSW,210,15.0,15.0,42,0.00,CLR,,0.00,WeatherDisplay:10.37,2013-05-31 19:23:00,
2013-05-31 14:29:00,79.0,53.9,29.70,South,170,5.8,5.8,42,0.00,CLR,,0.00,WeatherDisplay:10.37,2013-05-31 19:29:00,
2013-05-31 14:34:00,79.2,54.1,29.70,SSE,168,6.9,6.9,42,0.00,CLR,,0.00,WeatherDisplay:10.37,2013-05-31 19:34:00,
2013-05-31 14:39:00,79.2,54.1,29.70,South,189,9.2,9.2,42,0.00,CLR,,0.00,WeatherDisplay:10.37,2013-05-31 19:39:00,
2013-05-31 14:44:00,79.2,54.1,29.70,ESE,103,8.1,8.1,42,0.00,CLR,,0.00,WeatherDisplay:10.37,2013-05-31 19:44:00,
2013-05-31 14:49:00,79.2,54.1,29.70,SSW,212,8.1,8.1,42,0.00,CLR,,0.00,WeatherDisplay:10.37,2013-05-31 19:49:00,
2013-05-31 14:55:00,78.4,53.4,29.70,South,181,8.1,8.1,42,0.00,CLR,,0.00,WeatherDisplay:10.37,2013-05-31 19:55:00,
2013-05-31 15:00:00,78.1,53.1,29.70,SSW,200,5.8,5.8,42,0.00,CLR,,0.00,WeatherDisplay:10.37,2013-05-31 20:00:00,
2013-05-31 15:05:00,77.7,52.8,29.70,SSW,210,10.5,10.5,42,0.00,CLR,,0.00,WeatherDisplay:10.37,2013-05-31 20:05:00,
2013-05-31 15:10:00,77.7,52.8,29.70,SW,230,12.7,12.7,42,0.00,CLR,,0.00,WeatherDisplay:10.37,2013-05-31 20:10:00,
2013-05-31 15:15:00,77.7,53.4,29.70,SSW,199,5.8,5.8,43,0.00,CLR,,0.00,WeatherDisplay:10.37,2013-05-31 20:15:00,
2013-05-31 15:20:00,77.4,53.7,29.70,SW,223,8.1,8.1,44,0.02,RA,,0.02,WeatherDisplay:10.37,2013-05-31 20:20:00,
2013-05-31 15:25:00,78.1,53.1,29.70,SSW,210,8.1,8.1,42,0.02,RA,,0.02,WeatherDisplay:10.37,2013-05-31 20:25:00,
2013-05-31 15:31:00,79.0,53.9,29.70,SSW,196,5.8,5.8,42,0.02,CLR,,0.02,WeatherDisplay:10.37,2013-05-31 20:31:00,
2013-05-31 15:36:00,79.5,53.8,29.70,SE,139,8.1,8.1,41,0.02,,,0.02,WeatherDisplay:10.37,2013-05-31 20:36:00,
2013-05-31 15:41:00,79.0,53.3,29.70,SW,230,8.1,8.1,41,0.02,,,0.02,WeatherDisplay:10.37,2013-05-31 20:41:00,
2013-05-31 15:46:00,78.1,52.5,29.70,SSE,160,10.4,10.4,41,0.02,,,0.02,WeatherDisplay:10.37,2013-05-31 20:46:00,
2013-05-31 15:51:00,77.2,51.7,29.70,South,191,5.8,5.8,41,0.02,,,0.02,WeatherDisplay:10.37,2013-05-31 20:51:00,
2013-05-31 15:56:00,76.5,57.5,29.70,SSW,198,11.5,11.5,52,0.02,,,0.02,WeatherDisplay:10.37,2013-05-31 20:56:00,
2013-05-31 16:01:00,75.7,56.9,29.70,South,169,5.8,5.8,52,0.02,,,0.02,WeatherDisplay:10.37,2013-05-31 21:01:00,
2013-05-31 16:06:00,75.2,56.9,29.67,South,184,4.6,4.6,53,0.02,,,0.02,WeatherDisplay:10.37,2013-05-31 21:06:00,
2013-05-31 16:12:00,74.8,56.6,29.67,SSW,199,5.8,5.8,53,0.02,,,0.02,WeatherDisplay:10.37,2013-05-31 21:12:00,
2013-05-31 16:17:00,74.5,56.7,29.70,SSW,201,5.8,5.8,54,0.00,,,0.02,WeatherDisplay:10.37,2013-05-31 21:17:00,
2013-05-31 16:22:00,73.0,56.4,29.70,SW,225,25.3,25.3,56,0.01,RA,,0.03,WeatherDisplay:10.37,2013-05-31 21:22:00,
2013-05-31 16:27:00,69.4,53.5,29.70,West,267,5.8,5.8,57,0.03,RA,,0.06,WeatherDisplay:10.37,2013-05-31 21:27:00,
2013-05-31 16:33:00,66.7,52.9,29.73,ENE,69,2.3,0.0,61,0.06,RA,,0.08,WeatherDisplay:10.37,2013-05-31 21:33:00,
2013-05-31 16:38:00,65.1,52.2,29.73,NE,54,0.0,0.0,63,0.10,RA,,0.12,WeatherDisplay:10.37,2013-05-31 21:38:00,
2013-05-31 16:43:00,63.7,51.7,29.73,South,182,3.6,3.6,65,0.13,RA,,0.15,WeatherDisplay:10.37,2013-05-31 21:43:00,
2013-05-31 16:48:00,62.6,51.9,29.70,SE,145,5.8,5.8,68,0.19,RA,,0.21,WeatherDisplay:10.37,2013-05-31 21:48:00,
2013-05-31 16:53:00,61.3,52.6,29.70,ENE,69,5.8,5.8,73,0.22,RA,,0.24,WeatherDisplay:10.37,2013-05-31 21:53:00,
2013-05-31 16:58:00,61.0,52.3,29.70,WNW,300,0.0,0.0,73,0.22,RA,,0.24,WeatherDisplay:10.37,2013-05-31 21:58:00,
2013-05-31 17:04:00,61.2,53.2,29.64,East,84,0.0,0.0,75,0.22,,,0.24,WeatherDisplay:10.37,2013-05-31 22:04:00,
2013-05-31 17:09:00,61.3,53.7,29.64,North,353,0.0,0.0,76,0.22,,,0.24,WeatherDisplay:10.37,2013-05-31 22:09:00,
2013-05-31 17:14:00,61.7,54.8,29.64,ENE,65,4.6,4.6,78,0.22,,,0.24,WeatherDisplay:10.37,2013-05-31 22:14:00,
2013-05-31 17:19:00,62.1,55.5,29.67,ENE,64,5.8,5.8,79,0.22,,,0.24,WeatherDisplay:10.37,2013-05-31 22:19:00,
2013-05-31 17:24:00,62.2,55.3,29.67,NE,53,3.5,3.5,78,0.20,,,0.24,WeatherDisplay:10.37,2013-05-31 22:24:00,
2013-05-31 17:29:00,62.4,55.1,29.67,NE,34,3.5,3.5,77,0.18,,,0.24,WeatherDisplay:10.37,2013-05-31 22:29:00,
2013-05-31 17:35:00,62.6,54.6,29.67,East,83,0.0,0.0,75,0.16,,,0.24,WeatherDisplay:10.37,2013-05-31 22:35:00,
2013-05-31 17:40:00,62.8,54.4,29.67,East,83,0.0,0.0,74,0.10,,,0.24,WeatherDisplay:10.37,2013-05-31 22:40:00,
2013-05-31 17:45:00,63.1,55.1,29.67,SE,140,0.0,0.0,75,0.06,,,0.24,WeatherDisplay:10.37,2013-05-31 22:45:00,
2013-05-31 17:50:00,63.7,56.0,29.67,ENE,76,0.0,0.0,76,0.01,,,0.24,WeatherDisplay:10.37,2013-05-31 22:50:00,
2013-05-31 17:55:00,64.2,56.1,29.67,East,98,0.0,0.0,75,0.00,,,0.24,WeatherDisplay:10.37,2013-05-31 22:55:00,
2013-05-31 18:00:00,64.8,56.6,29.67,SE,130,3.5,3.5,75,0.00,,,0.24,WeatherDisplay:10.37,2013-05-31 23:00:00,
2013-05-31 18:06:00,65.3,57.2,29.64,SSE,159,3.5,3.5,75,0.00,,,0.24,WeatherDisplay:10.37,2013-05-31 23:06:00,
2013-05-31 18:11:00,65.8,57.7,29.64,South,169,3.1,0.0,75,0.00,,,0.24,WeatherDisplay:10.37,2013-05-31 23:11:00,
2013-05-31 18:16:00,66.2,57.7,29.64,ESE,122,0.0,0.0,74,0.00,,,0.24,WeatherDisplay:10.37,2013-05-31 23:16:00,
2013-05-31 18:21:00,66.6,58.0,29.64,SE,135,2.3,0.0,74,0.00,,,0.24,WeatherDisplay:10.37,2013-05-31 23:21:00,
2013-05-31 18:26:00,66.9,58.4,29.64,SE,146,0.0,0.0,74,0.00,,,0.24,WeatherDisplay:10.37,2013-05-31 23:26:00,
2013-05-31 18:31:00,67.1,58.5,29.64,SE,130,3.5,0.0,74,0.00,,,0.24,WeatherDisplay:10.37,2013-05-31 23:31:00,
2013-05-31 18:36:00,67.3,58.7,29.64,SE,130,0.0,0.0,74,0.00,,,0.24,WeatherDisplay:10.37,2013-05-31 23:36:00,
2013-05-31 18:41:00,67.5,58.5,29.64,SSE,153,2.3,0.0,73,0.00,,,0.24,WeatherDisplay:10.37,2013-05-31 23:41:00,
2013-05-31 18:47:00,67.5,58.5,29.64,SSE,157,2.7,0.0,73,0.00,,,0.24,WeatherDisplay:10.37,2013-05-31 23:47:00,
2013-05-31 18:52:00,67.5,58.1,29.64,SE,139,4.0,4.0,72,0.00,,,0.24,WeatherDisplay:10.37,2013-05-31 23:52:00,
2013-05-31 18:57:00,67.5,58.1,29.64,SE,134,3.5,3.5,72,0.00,,,0.24,WeatherDisplay:10.37,2013-05-31 23:57:00,
2013-05-31 19:02:00,67.5,58.1,29.61,SSE,149,3.5,3.5,72,0.00,,,0.24,WeatherDisplay:10.37,2013-06-01 00:02:00,
2013-05-31 19:08:00,67.5,58.1,29.61,SE,135,2.3,0.0,72,0.00,,,0.24,WeatherDisplay:10.37,2013-06-01 00:08:00,
2013-05-31 19:13:00,67.5,58.1,29.61,SE,135,0.0,0.0,72,0.00,,,0.24,WeatherDisplay:10.37,2013-06-01 00:13:00,
2013-05-31 19:18:00,67.6,58.7,29.64,ESE,111,0.0,0.0,73,0.00,,,0.24,WeatherDisplay:10.37,2013-06-01 00:18:00,
2013-05-31 19:23:00,67.6,58.7,29.64,SW,225,0.0,0.0,73,0.00,,,0.24,WeatherDisplay:10.37,2013-06-01 00:23:00,
2013-05-31 19:28:00,67.5,58.9,29.64,WNW,298,3.5,3.5,74,0.00,,,0.24,WeatherDisplay:10.37,2013-06-01 00:28:00,
2013-05-31 19:33:00,66.7,57.0,29.70,SW,224,9.2,9.2,71,0.00,,,0.25,WeatherDisplay:10.37,2013-06-01 00:33:00,
2013-05-31 19:38:00,65.7,56.4,29.70,SW,225,6.3,6.3,72,0.01,RA,,0.25,WeatherDisplay:10.37,2013-06-01 00:38:00,
2013-05-31 19:44:00,65.1,56.6,29.70,SSW,199,4.6,4.6,74,0.01,,,0.25,WeatherDisplay:10.37,2013-06-01 00:44:00,
2013-05-31 19:49:00,64.8,56.6,29.67,SSW,211,0.0,0.0,75,0.01,,,0.25,WeatherDisplay:10.37,2013-06-01 00:49:00,
2013-05-31 19:54:00,64.9,57.2,29.67,SSW,194,5.8,5.8,76,0.01,,,0.25,WeatherDisplay:10.37,2013-06-01 00:54:00,
2013-05-31 19:59:00,65.3,56.8,29.67,SSW,205,5.8,5.8,74,0.01,,,0.25,WeatherDisplay:10.37,2013-06-01 00:59:00,
2013-05-31 20:04:00,65.7,56.8,29.67,SW,214,5.8,5.8,73,0.01,,,0.25,WeatherDisplay:10.37,2013-06-01 01:04:00,
2013-05-31 20:09:00,65.7,56.4,29.67,SW,214,3.5,3.5,72,0.01,,,0.25,WeatherDisplay:10.37,2013-06-01 01:09:00,
2013-05-31 20:14:00,65.7,56.0,29.67,SW,226,3.5,0.0,71,0.01,,,0.25,WeatherDisplay:10.37,2013-06-01 01:14:00,
2013-05-31 20:20:00,65.7,56.4,29.67,SW,226,0.0,0.0,72,0.01,,,0.25,WeatherDisplay:10.37,2013-06-01 01:20:00,
2013-05-31 20:25:00,65.5,56.2,29.67,SW,234,0.0,0.0,72,0.01,,,0.25,WeatherDisplay:10.37,2013-06-01 01:25:00,
2013-05-31 20:30:00,65.3,56.4,29.67,SW,225,0.0,0.0,73,0.01,,,0.25,WeatherDisplay:10.37,2013-06-01 01:30:00,
2013-05-31 20:35:00,64.9,56.1,29.67,SSW,196,0.0,0.0,73,0.00,,,0.25,WeatherDisplay:10.37,2013-06-01 01:35:00,
2013-05-31 20:40:00,64.8,56.3,29.67,SSW,196,0.0,0.0,74,0.00,,,0.25,WeatherDisplay:10.37,2013-06-01 01:40:00,
2013-05-31 20:45:00,64.6,56.1,29.67,SSW,196,0.0,0.0,74,0.00,,,0.25,WeatherDisplay:10.37,2013-06-01 01:45:00,
2013-05-31 20:51:00,64.2,56.1,29.67,SSE,158,0.0,0.0,75,0.00,,,0.25,WeatherDisplay:10.37,2013-06-01 01:51:00,
2013-05-31 20:56:00,64.2,56.1,29.67,SSE,165,3.5,3.5,75,0.00,,,0.25,WeatherDisplay:10.37,2013-06-01 01:56:00,
2013-05-31 21:01:00,64.2,56.1,29.67,SSE,154,2.3,0.0,75,0.00,,,0.25,WeatherDisplay:10.37,2013-06-01 02:01:00,
2013-05-31 21:06:00,64.0,55.6,29.67,SSE,166,3.5,0.0,74,0.00,,,0.25,WeatherDisplay:10.37,2013-06-01 02:06:00,
2013-05-31 21:11:00,64.0,55.6,29.67,SSE,155,2.3,0.0,74,0.00,,,0.25,WeatherDisplay:10.37,2013-06-01 02:11:00,
2013-05-31 21:16:00,63.9,55.4,29.67,SSE,152,2.3,0.0,74,0.00,,,0.25,WeatherDisplay:10.37,2013-06-01 02:16:00,
2013-05-31 21:22:00,63.9,55.4,29.64,SE,144,2.7,2.7,74,0.00,,,0.25,WeatherDisplay:10.37,2013-06-01 02:22:00,
2013-05-31 21:27:00,63.7,55.2,29.64,SSE,156,2.3,0.0,74,0.00,,,0.25,WeatherDisplay:10.37,2013-06-01 02:27:00,
2013-05-31 21:32:00,63.5,55.1,29.67,SSE,153,3.6,0.0,74,0.00,,,0.25,WeatherDisplay:10.37,2013-06-01 02:32:00,
2013-05-31 21:37:00,63.5,54.7,29.67,SSE,156,3.5,3.5,73,0.00,,,0.25,WeatherDisplay:10.37,2013-06-01 02:37:00,
2013-05-31 21:42:00,63.3,54.5,29.67,SE,138,3.5,3.5,73,0.00,,,0.25,WeatherDisplay:10.37,2013-06-01 02:42:00,
2013-05-31 21:47:00,63.0,54.2,29.67,South,171,0.0,0.0,73,0.00,,,0.25,WeatherDisplay:10.37,2013-06-01 02:47:00,
2013-05-31 21:53:00,62.8,54.4,29.67,WNW,295,0.0,0.0,74,0.00,,,0.25,WeatherDisplay:10.37,2013-06-01 02:53:00,
2013-05-31 21:58:00,62.6,54.2,29.67,ENE,57,2.3,0.0,74,0.00,,,0.25,WeatherDisplay:10.37,2013-06-01 02:58:00,
2013-05-31 22:03:00,62.4,54.8,29.67,East,93,2.3,0.0,76,0.00,,,0.25,WeatherDisplay:10.37,2013-06-01 03:03:00,
2013-05-31 22:08:00,62.4,54.8,29.67,NW,305,0.0,0.0,76,0.00,,,0.25,WeatherDisplay:10.37,2013-06-01 03:08:00,
2013-05-31 22:14:00,62.6,54.6,29.67,ENE,76,0.0,0.0,75,0.00,,,0.25,WeatherDisplay:10.37,2013-06-01 03:14:00,
2013-05-31 22:19:00,62.8,54.7,29.70,ENE,76,0.0,0.0,75,0.00,,,0.25,WeatherDisplay:10.37,2013-06-01 03:19:00,
2013-05-31 22:24:00,62.8,55.1,29.70,WNW,288,0.0,0.0,76,0.00,,,0.25,WeatherDisplay:10.37,2013-06-01 03:24:00,
2013-05-31 22:30:00,63.1,55.8,29.70,NNE,20,3.5,3.5,77,0.02,RA,,0.27,WeatherDisplay:10.37,2013-06-01 03:30:00,
2013-05-31 22:35:00,62.6,55.3,29.70,East,84,5.8,5.8,77,0.06,RA,,0.33,WeatherDisplay:10.37,2013-06-01 03:35:00,
2013-05-31 22:40:00,62.1,54.8,29.70,ESE,110,0.0,0.0,77,0.09,RA,,0.33,WeatherDisplay:10.37,2013-06-01 03:40:00,
2013-05-31 22:45:00,61.7,54.4,29.70,NE,56,0.0,0.0,77,0.09,RA,,0.33,WeatherDisplay:10.37,2013-06-01 03:45:00,
2013-05-31 22:51:00,61.3,54.4,29.70,ENE,67,0.0,0.0,78,0.10,RA,,0.34,WeatherDisplay:10.37,2013-06-01 03:51:00,
2013-05-31 22:56:00,61.0,54.4,29.70,SSE,149,3.5,0.0,79,0.11,RA,,0.36,WeatherDisplay:10.37,2013-06-01 03:56:00,
2013-05-31 23:01:00,61.0,54.8,29.70,SE,130,4.0,0.0,80,0.13,RA,,0.38,WeatherDisplay:10.37,2013-06-01 04:01:00,
2013-05-31 23:02:00,60.8,54.9,29.70,SSE,156,4.6,4.6,81,0.13,RA,,0.38,WeatherDisplay:10.37,2013-06-01 04:02:00,
2013-05-31 23:07:00,60.4,55.6,29.70,SE,133,3.5,3.5,84,0.14,RA,,0.39,WeatherDisplay:10.37,2013-06-01 04:07:00,
2013-05-31 23:12:00,60.1,54.9,29.70,ESE,117,0.0,0.0,83,0.14,RA,,0.39,WeatherDisplay:10.37,2013-06-01 04:12:00,
2013-05-31 23:17:00,59.9,54.7,29.67,NE,40,0.0,0.0,83,0.14,,,0.40,WeatherDisplay:10.37,2013-06-01 04:17:00,
2013-05-31 23:23:00,59.7,54.9,29.67,East,84,0.0,0.0,84,0.15,RA,,0.40,WeatherDisplay:10.37,2013-06-01 04:23:00,
2013-05-31 23:28:00,59.5,54.7,29.67,ENE,71,0.0,0.0,84,0.15,,,0.40,WeatherDisplay:10.37,2013-06-01 04:28:00,
2013-05-31 23:33:00,59.5,54.7,29.70,SE,144,3.5,3.5,84,0.11,,,0.41,WeatherDisplay:10.37,2013-06-01 04:33:00,
2013-05-31 23:38:00,59.2,54.7,29.70,ESE,120,3.5,3.5,85,0.08,RA,,0.41,WeatherDisplay:10.37,2013-06-01 04:38:00,
2013-05-31 23:43:00,59.0,54.5,29.70,SSW,208,2.3,0.0,85,0.08,RA,,0.41,WeatherDisplay:10.37,2013-06-01 04:43:00,
2013-05-31 23:49:00,59.0,54.5,29.73,SSE,155,0.0,0.0,85,0.08,,,0.41,WeatherDisplay:10.37,2013-06-01 04:49:00,
2013-05-31 23:54:00,58.8,54.6,29.73,SE,132,3.5,0.0,86,0.07,RA,,0.42,WeatherDisplay:10.37,2013-06-01 04:54:00,
2013-05-31 23:59:00,58.6,54.5,29.73,SSW,212,4.6,4.6,86,0.07,RA,,0.44,WeatherDisplay:10.37,2013-06-01 04:59:00,